Time;durP1;ratioP1;P1;durP2;ratioP2;P2;SDS_P1;SDS_P2;PMS_P1;PMS_P2;Temp;Humidity;BMP_temperature;BMP_pressure;BME280_temperature;BME280_humidity;BME280_pressure;Samples;Min_cycle;Max_cycle;Signal;HPM_P1;HPM_P2
2022/10/23 00:03:59;;;;;;;2.80;2.55;;;;;;;;;;10456309;28;20267;-69
2022/10/23 00:09:00;;;;;;;2.67;2.45;;;;;;;;;;10454074;28;20218;-69
2022/10/23 00:14:02;;;;;;;3.40;3.20;;;;;;;;;;10455080;28;20225;-69
2022/10/23 00:19:04;;;;;;;4.43;3.22;;;;;;;;;;10455872;28;20705;-69
2022/10/23 00:24:05;;;;;;;3.00;2.90;;;;;;;;;;10467634;28;20221;-69
2022/10/23 00:29:07;;;;;;;2.50;2.28;;;;;;;;;;10454724;28;20271;-69
2022/10/23 00:34:09;;;;;;;2.42;2.22;;;;;;;;;;10451572;28;20258;-69
2022/10/23 00:39:11;;;;;;;2.83;2.42;;;;;;;;;;10451408;28;20540;-69
2022/10/23 00:44:17;;;;;;;2.22;2.13;;;;;;;;;;10449133;28;20258;-68
2022/10/23 00:49:19;;;;;;;5.65;2.05;;;;;;;;;;10454803;28;20230;-69
2022/10/23 00:54:22;;;;;;;2.28;2.17;;;;;;;;;;10449670;28;20305;-69
2022/10/23 00:59:24;;;;;;;2.15;2.00;;;;;;;;;;10448664;28;20214;-69
2022/10/23 01:04:26;;;;;;;2.58;2.20;;;;;;;;;;10452310;28;20280;-69
2022/10/23 01:09:56;;;;;;;2.08;1.98;;;;;;;;;;10446994;28;20272;-69
2022/10/23 01:14:57;;;;;;;3.00;2.10;;;;;;;;;;10437878;28;20226;-69
2022/10/23 01:20:04;;;;;;;2.20;2.10;;;;;;;;;;10431723;28;20207;-69
2022/10/23 01:25:16;;;;;;;4.00;2.38;;;;;;;;;;10442491;28;20210;-69
2022/10/23 01:30:17;;;;;;;1.60;1.50;;;;;;;;;;10448092;28;20806;-69
2022/10/23 01:35:28;;;;;;;2.35;1.98;;;;;;;;;;10424898;28;20240;-68
2022/10/23 01:40:45;;;;;;;2.63;2.38;;;;;;;;;;10444794;28;20318;-68
2022/10/23 01:45:51;;;;;;;4.35;2.13;;;;;;;;;;10453079;28;20338;-69
2022/10/23 01:50:56;;;;;;;1.95;1.55;;;;;;;;;;10451161;28;20713;-69
2022/10/23 01:55:58;;;;;;;1.52;1.40;;;;;;;;;;10449513;28;20223;-69
2022/10/23 02:01:01;;;;;;;1.45;1.42;;;;;;;;;;10447748;28;20272;-69
2022/10/23 02:06:03;;;;;;;2.03;1.92;;;;;;;;;;10434193;28;20233;-69
2022/10/23 02:11:08;;;;;;;2.38;2.25;;;;;;;;;;10445006;28;20305;-69
2022/10/23 02:16:23;;;;;;;2.28;2.17;;;;;;;;;;10457294;28;20333;-69
2022/10/23 02:21:30;;;;;;;1.95;1.85;;;;;;;;;;10449788;28;20221;-68
2022/10/23 02:26:50;;;;;;;3.60;1.98;;;;;;;;;;10457705;28;20218;-69
2022/10/23 02:31:51;;;;;;;3.13;2.13;;;;;;;;;;10463038;28;20352;-68
2022/10/23 02:36:53;;;;;;;2.38;2.20;;;;;;;;;;10448726;28;20301;-69
2022/10/23 02:41:59;;;;;;;3.60;2.40;;;;;;;;;;10461046;28;20222;-68
2022/10/23 02:47:00;;;;;;;2.03;1.92;;;;;;;;;;10460784;28;20223;-69
2022/10/23 02:52:24;;;;;;;1.83;1.73;;;;;;;;;;10446131;28;20215;-69
2022/10/23 02:57:25;;;;;;;2.42;2.22;;;;;;;;;;10448027;28;20698;-69
2022/10/23 03:02:49;;;;;;;2.30;2.20;;;;;;;;;;10455404;28;20318;-69
2022/10/23 03:07:51;;;;;;;2.50;2.08;;;;;;;;;;10448448;28;20225;-69
2022/10/23 03:12:52;;;;;;;1.77;1.67;;;;;;;;;;10454606;28;20223;-69
2022/10/23 03:17:54;;;;;;;1.95;1.85;;;;;;;;;;10448325;28;20219;-69
2022/10/23 03:22:55;;;;;;;1.63;1.52;;;;;;;;;;10459311;28;20719;-69
2022/10/23 03:27:57;;;;;;;1.58;1.58;;;;;;;;;;10460402;28;20233;-69
2022/10/23 03:32:58;;;;;;;2.30;1.80;;;;;;;;;;10456604;28;20686;-69
2022/10/23 03:37:59;;;;;;;2.20;2.05;;;;;;;;;;10457348;28;20702;-69
2022/10/23 03:43:01;;;;;;;1.90;1.77;;;;;;;;;;10461729;28;20257;-69
2022/10/23 03:48:04;;;;;;;2.83;2.38;;;;;;;;;;10455364;28;20597;-69
2022/10/23 03:53:07;;;;;;;2.45;2.05;;;;;;;;;;10444949;28;20214;-68
2022/10/23 03:58:09;;;;;;;1.63;1.63;;;;;;;;;;10450857;28;20721;-68
2022/10/23 04:03:10;;;;;;;3.20;2.25;;;;;;;;;;10449813;28;20263;-68
2022/10/23 04:08:11;;;;;;;2.10;2.00;;;;;;;;;;10455098;28;20217;-69
2022/10/23 04:13:13;;;;;;;2.50;2.20;;;;;;;;;;10454733;28;20225;-69
2022/10/23 04:18:14;;;;;;;9.52;2.08;;;;;;;;;;10447787;28;20221;-69
2022/10/23 04:23:15;;;;;;;2.05;1.95;;;;;;;;;;10449499;28;20206;-69
2022/10/23 04:28:17;;;;;;;1.70;1.60;;;;;;;;;;10454805;28;20221;-69
2022/10/23 04:33:19;;;;;;;1.40;1.40;;;;;;;;;;10456118;28;20214;-69
2022/10/23 04:38:24;;;;;;;1.58;1.48;;;;;;;;;;10449462;28;20323;-70
2022/10/23 04:43:26;;;;;;;1.38;1.27;;;;;;;;;;10447423;28;20234;-69
2022/10/23 04:48:27;;;;;;;4.82;1.50;;;;;;;;;;10444742;28;20214;-69
2022/10/23 04:53:54;;;;;;;1.70;1.70;;;;;;;;;;10452646;28;20226;-69
2022/10/23 04:59:18;;;;;;;1.52;1.42;;;;;;;;;;10435076;28;20215;-70
2022/10/23 05:04:19;;;;;;;1.55;1.40;;;;;;;;;;10436688;28;20225;-69
2022/10/23 05:09:39;;;;;;;1.60;1.50;;;;;;;;;;10452946;28;20214;-69
2022/10/23 05:14:50;;;;;;;6.82;1.95;;;;;;;;;;10436873;28;20349;-69
2022/10/23 05:19:55;;;;;;;2.00;1.40;;;;;;;;;;10450047;28;20306;-70
2022/10/23 05:24:56;;;;;;;1.65;1.65;;;;;;;;;;10448862;28;20218;-69
2022/10/23 05:30:01;;;;;;;1.90;1.90;;;;;;;;;;10421720;28;20936;-69
2022/10/23 05:35:10;;;;;;;1.95;1.83;;;;;;;;;;10439627;28;20230;-69
2022/10/23 05:40:12;;;;;;;2.00;1.90;;;;;;;;;;10436700;28;20643;-68
2022/10/23 05:45:15;;;;;;;1.48;1.48;;;;;;;;;;10436892;28;20686;-69
2022/10/23 05:50:39;;;;;;;1.95;1.75;;;;;;;;;;10455912;28;20284;-69
2022/10/23 05:56:05;;;;;;;1.38;1.38;;;;;;;;;;10455038;28;20226;-69
2022/10/23 06:01:17;;;;;;;1.95;1.85;;;;;;;;;;10455787;28;20214;-69
2022/10/23 06:06:30;;;;;;;1.75;1.65;;;;;;;;;;10450301;28;20210;-69
2022/10/23 06:11:31;;;;;;;1.67;1.30;;;;;;;;;;10431001;28;20226;-69
2022/10/23 06:16:38;;;;;;;1.70;1.63;;;;;;;;;;10448939;28;20219;-68
2022/10/23 06:21:40;;;;;;;1.58;1.58;;;;;;;;;;10450768;28;20317;-68
2022/10/23 06:26:42;;;;;;;1.92;1.83;;;;;;;;;;10456155;28;20800;-68
2022/10/23 06:31:49;;;;;;;1.85;1.75;;;;;;;;;;10434182;28;20215;-69
2022/10/23 06:36:50;;;;;;;2.65;1.52;;;;;;;;;;10436960;28;20278;-70
2022/10/23 06:42:10;;;;;;;2.40;2.20;;;;;;;;;;10457649;28;20226;-69
2022/10/23 06:47:34;;;;;;;3.28;2.47;;;;;;;;;;10412580;28;20227;-69
2022/10/23 06:53:03;;;;;;;3.10;2.35;;;;;;;;;;10391887;28;20223;-69
2022/10/23 06:58:09;;;;;;;2.72;2.53;;;;;;;;;;10396793;28;20230;-69
2022/10/23 07:03:12;;;;;;;4.03;3.15;;;;;;;;;;10411342;28;20219;-68
2022/10/23 07:08:14;;;;;;;3.20;2.90;;;;;;;;;;10407900;28;20678;-69
2022/10/23 07:13:17;;;;;;;3.45;3.15;;;;;;;;;;10387057;28;20219;-68
2022/10/23 07:18:37;;;;;;;3.97;3.67;;;;;;;;;;10421803;28;20210;-66
2022/10/23 07:24:10;;;;;;;5.07;4.57;;;;;;;;;;10409026;28;20218;-66
2022/10/23 07:29:14;;;;;;;5.57;4.38;;;;;;;;;;10392925;28;20321;-66
2022/10/23 07:34:16;;;;;;;8.77;4.20;;;;;;;;;;10401459;28;20710;-68
2022/10/23 07:39:19;;;;;;;4.60;4.20;;;;;;;;;;10399659;28;20243;-69
2022/10/23 07:44:25;;;;;;;4.50;3.75;;;;;;;;;;10417520;28;20313;-67
2022/10/23 07:49:26;;;;;;;4.90;3.90;;;;;;;;;;10462037;28;20309;-70
2022/10/23 07:54:28;;;;;;;4.45;3.72;;;;;;;;;;10458026;28;20218;-70
2022/10/23 07:59:35;;;;;;;6.32;4.45;;;;;;;;;;10459826;28;20215;-68
2022/10/23 08:04:40;;;;;;;3.92;3.63;;;;;;;;;;10456686;28;20310;-71
2022/10/23 08:09:53;;;;;;;4.15;3.80;;;;;;;;;;10459550;28;20220;-71
2022/10/23 08:14:54;;;;;;;4.10;3.78;;;;;;;;;;10456300;28;20245;-68
2022/10/23 08:19:56;;;;;;;4.18;3.90;;;;;;;;;;10460436;28;20214;-69
2022/10/23 08:25:01;;;;;;;5.03;4.07;;;;;;;;;;10454939;28;20300;-68
2022/10/23 08:30:02;;;;;;;5.63;4.18;;;;;;;;;;10453002;28;20224;-71
2022/10/23 08:35:04;;;;;;;4.85;4.18;;;;;;;;;;10456705;28;20221;-71
2022/10/23 08:40:07;;;;;;;3.75;3.45;;;;;;;;;;10456857;28;20194;-71
2022/10/23 08:45:37;;;;;;;4.53;4.10;;;;;;;;;;10456231;28;20218;-71
2022/10/23 08:50:55;;;;;;;4.00;3.38;;;;;;;;;;10458286;28;20366;-70
2022/10/23 08:56:02;;;;;;;6.10;3.70;;;;;;;;;;10455713;28;20229;-71
2022/10/23 09:01:20;;;;;;;4.60;4.00;;;;;;;;;;10450899;28;21172;-69
2022/10/23 09:06:34;;;;;;;4.05;3.65;;;;;;;;;;10456136;28;20214;-70
2022/10/23 09:11:45;;;;;;;4.40;4.00;;;;;;;;;;10452011;28;20840;-70
2022/10/23 09:17:10;;;;;;;8.85;4.00;;;;;;;;;;10452431;28;20229;-70
2022/10/23 09:22:12;;;;;;;5.72;3.95;;;;;;;;;;10452113;28;20218;-70
2022/10/23 09:27:17;;;;;;;4.57;4.20;;;;;;;;;;10446229;28;20210;-70
2022/10/23 09:32:18;;;;;;;4.30;3.88;;;;;;;;;;10455255;28;20604;-69
2022/10/23 09:37:22;;;;;;;3.83;3.58;;;;;;;;;;10448703;28;20834;-69
2022/10/23 09:42:24;;;;;;;7.32;3.20;;;;;;;;;;10454074;28;20591;-69
2022/10/23 09:47:26;;;;;;;7.70;3.10;;;;;;;;;;10448850;28;20227;-69
2022/10/23 09:52:35;;;;;;;3.80;3.50;;;;;;;;;;10450365;28;20225;-69
2022/10/23 09:57:41;;;;;;;4.13;3.55;;;;;;;;;;10451646;28;20268;-69
2022/10/23 10:02:43;;;;;;;3.67;3.38;;;;;;;;;;10445684;28;20353;-71
2022/10/23 10:07:55;;;;;;;4.57;3.42;;;;;;;;;;10448521;28;20222;-71
2022/10/23 10:12:58;;;;;;;3.97;3.45;;;;;;;;;;10445245;28;21124;-71
2022/10/23 10:17:59;;;;;;;4.68;3.10;;;;;;;;;;10448884;28;20235;-71
2022/10/23 10:23:00;;;;;;;7.10;3.15;;;;;;;;;;10456563;28;20210;-70
2022/10/23 10:28:07;;;;;;;3.60;2.80;;;;;;;;;;10451149;28;20318;-70
2022/10/23 10:33:14;;;;;;;3.45;2.70;;;;;;;;;;10445680;28;20218;-72
2022/10/23 10:38:34;;;;;;;1.98;1.73;;;;;;;;;;10453698;28;20272;-72
2022/10/23 10:43:35;;;;;;;2.10;2.00;;;;;;;;;;10454194;28;20725;-72
2022/10/23 10:48:49;;;;;;;1.60;1.60;;;;;;;;;;10451832;28;20220;-72
2022/10/23 10:54:27;;;;;;;1.63;1.52;;;;;;;;;;10455261;28;20253;-72
2022/10/23 10:59:30;;;;;;;1.73;1.63;;;;;;;;;;10455876;28;20296;-72
2022/10/23 11:04:35;;;;;;;1.38;1.30;;;;;;;;;;10456342;28;20234;-72
2022/10/23 11:09:38;;;;;;;1.92;1.83;;;;;;;;;;10458698;28;20252;-72
2022/10/23 11:14:41;;;;;;;3.88;2.20;;;;;;;;;;10458303;28;20750;-72
2022/10/23 11:19:45;;;;;;;2.30;2.15;;;;;;;;;;10451274;28;21053;-72
2022/10/23 11:24:52;;;;;;;2.72;1.90;;;;;;;;;;10459888;28;20218;-71
2022/10/23 11:30:12;;;;;;;2.63;2.42;;;;;;;;;;10457068;28;20211;-71
2022/10/23 11:35:23;;;;;;;2.28;2.17;;;;;;;;;;10457845;28;20241;-70
2022/10/23 11:40:25;;;;;;;4.82;1.83;;;;;;;;;;10452615;28;20237;-71
2022/10/23 11:45:26;;;;;;;2.13;2.03;;;;;;;;;;10454899;28;20292;-70
2022/10/23 11:50:31;;;;;;;2.10;2.00;;;;;;;;;;10451645;28;20724;-71
2022/10/23 11:55:33;;;;;;;2.60;1.80;;;;;;;;;;10453651;28;20227;-71
2022/10/23 12:00:38;;;;;;;1.40;1.40;;;;;;;;;;10461409;28;20222;-70
2022/10/23 12:05:41;;;;;;;1.75;1.70;;;;;;;;;;10451078;28;20210;-71
2022/10/23 12:10:52;;;;;;;1.55;1.38;;;;;;;;;;10457347;28;20236;-72
2022/10/23 12:15:54;;;;;;;1.25;1.25;;;;;;;;;;10448489;28;20304;-72
2022/10/23 12:20:59;;;;;;;4.72;1.40;;;;;;;;;;10455037;28;21125;-72
2022/10/23 12:26:09;;;;;;;1.70;1.00;;;;;;;;;;10453042;28;20893;-70
2022/10/23 12:31:22;;;;;;;4.60;1.00;;;;;;;;;;10436096;28;20830;-68
2022/10/23 12:36:28;;;;;;;1.23;1.23;;;;;;;;;;10453420;28;24394;-72
2022/10/23 12:41:30;;;;;;;3.88;1.20;;;;;;;;;;10458755;28;20226;-67
2022/10/23 12:46:33;;;;;;;3.72;1.10;;;;;;;;;;10454704;28;20250;-69
2022/10/23 12:51:35;;;;;;;1.77;1.30;;;;;;;;;;10460623;28;20308;-69
2022/10/23 12:56:37;;;;;;;1.27;1.00;;;;;;;;;;10460424;28;21082;-70
2022/10/23 13:01:38;;;;;;;1.00;1.00;;;;;;;;;;10457388;28;20218;-72
2022/10/23 13:06:40;;;;;;;1.08;0.90;;;;;;;;;;10457914;28;20214;-70
2022/10/23 13:11:42;;;;;;;1.17;1.17;;;;;;;;;;10456887;28;20226;-67
2022/10/23 13:16:45;;;;;;;1.02;0.88;;;;;;;;;;10453451;28;20226;-66
2022/10/23 13:21:49;;;;;;;1.35;1.02;;;;;;;;;;10455596;28;20240;-66
2022/10/23 13:26:50;;;;;;;3.95;1.15;;;;;;;;;;10460768;28;20223;-69
2022/10/23 13:31:51;;;;;;;3.28;0.88;;;;;;;;;;10438697;28;20564;-71
2022/10/23 13:37:01;;;;;;;1.38;1.08;;;;;;;;;;10451488;28;20244;-70
2022/10/23 13:42:10;;;;;;;4.82;1.00;;;;;;;;;;10454886;28;20207;-70
2022/10/23 13:47:12;;;;;;;2.47;1.10;;;;;;;;;;10447483;28;20218;-70
2022/10/23 13:52:18;;;;;;;6.03;1.00;;;;;;;;;;10446607;28;21400;-72
2022/10/23 13:57:20;;;;;;;2.15;1.20;;;;;;;;;;10451169;28;20179;-74
2022/10/23 14:02:23;;;;;;;2.08;1.40;;;;;;;;;;10447030;28;20625;-73
2022/10/23 14:07:24;;;;;;;1.45;1.20;;;;;;;;;;10454038;28;20195;-74
2022/10/23 14:12:25;;;;;;;4.38;1.20;;;;;;;;;;10454323;28;20217;-75
2022/10/23 14:17:27;;;;;;;1.00;1.00;;;;;;;;;;10461488;28;20203;-74
2022/10/23 14:22:28;;;;;;;0.98;0.98;;;;;;;;;;10457030;28;20198;-75
2022/10/23 14:27:29;;;;;;;1.30;1.15;;;;;;;;;;10461779;28;20195;-75
2022/10/23 14:32:30;;;;;;;5.18;1.58;;;;;;;;;;10455098;28;20318;-75
2022/10/23 14:37:31;;;;;;;1.20;1.20;;;;;;;;;;10458566;28;20201;-75
2022/10/23 14:42:33;;;;;;;1.60;0.85;;;;;;;;;;10454018;28;20233;-79
2022/10/23 14:47:34;;;;;;;3.03;0.70;;;;;;;;;;10472297;28;20207;-82
2022/10/23 14:52:36;;;;;;;0.75;0.73;;;;;;;;;;10466423;28;20564;-76
2022/10/23 14:57:37;;;;;;;1.02;0.93;;;;;;;;;;10460645;28;20278;-79
2022/10/23 15:02:38;;;;;;;1.13;1.08;;;;;;;;;;10468065;28;20899;-79
2022/10/23 15:07:42;;;;;;;1.23;1.23;;;;;;;;;;10467194;28;20229;-78
2022/10/23 15:12:43;;;;;;;0.85;0.85;;;;;;;;;;10456842;28;20277;-75
2022/10/23 15:17:44;;;;;;;1.75;1.30;;;;;;;;;;10456263;28;20218;-74
2022/10/23 15:22:45;;;;;;;3.53;1.65;;;;;;;;;;10457773;28;20198;-74
2022/10/23 15:27:47;;;;;;;1.63;1.52;;;;;;;;;;10473798;28;20693;-77
2022/10/23 15:32:48;;;;;;;20.45;16.00;;;;;;;;;;10453927;28;20214;-77
2022/10/23 15:37:49;;;;;;;4.15;3.88;;;;;;;;;;10455532;28;20186;-78
2022/10/23 15:42:51;;;;;;;6.18;5.65;;;;;;;;;;10458480;28;20230;-78
2022/10/23 15:47:52;;;;;;;4.30;2.30;;;;;;;;;;10451771;28;21117;-80
2022/10/23 15:52:54;;;;;;;4.18;2.75;;;;;;;;;;10445945;28;20277;-80
2022/10/23 15:58:00;;;;;;;3.13;3.00;;;;;;;;;;10456714;28;20278;-78
2022/10/23 16:03:01;;;;;;;5.13;2.92;;;;;;;;;;10434874;28;20222;-76
2022/10/23 16:08:03;;;;;;;2.45;2.35;;;;;;;;;;10454886;28;20237;-75
2022/10/23 16:13:04;;;;;;;2.75;2.47;;;;;;;;;;10455114;28;20788;-74
2022/10/23 16:18:07;;;;;;;3.10;2.90;;;;;;;;;;10461453;28;20194;-76
2022/10/23 16:23:08;;;;;;;2.35;1.58;;;;;;;;;;10455954;28;20784;-78
2022/10/23 16:28:09;;;;;;;2.75;2.15;;;;;;;;;;10461631;28;20217;-79
2022/10/23 16:33:10;;;;;;;4.10;3.88;;;;;;;;;;10456985;28;20233;-75
2022/10/23 16:38:12;;;;;;;1.65;1.55;;;;;;;;;;10453976;28;20189;-75
2022/10/23 16:43:13;;;;;;;3.33;1.85;;;;;;;;;;10456610;28;20233;-76
2022/10/23 16:48:17;;;;;;;2.00;2.00;;;;;;;;;;10438785;28;20194;-75
2022/10/23 16:53:19;;;;;;;1.48;1.30;;;;;;;;;;10450430;28;20724;-76
2022/10/23 16:58:20;;;;;;;1.38;1.38;;;;;;;;;;10453791;28;20193;-76
2022/10/23 17:03:21;;;;;;;1.65;1.58;;;;;;;;;;10455549;28;21035;-76
2022/10/23 17:08:22;;;;;;;1.27;1.27;;;;;;;;;;10454501;28;20301;-76
2022/10/23 17:13:23;;;;;;;1.20;1.13;;;;;;;;;;10455379;28;20222;-76
2022/10/23 17:18:24;;;;;;;1.08;1.08;;;;;;;;;;10457534;28;20194;-76
2022/10/23 17:23:25;;;;;;;1.15;1.15;;;;;;;;;;10454925;28;20201;-75
2022/10/23 17:28:27;;;;;;;1.50;1.40;;;;;;;;;;10461286;28;20193;-80
2022/10/23 17:33:28;;;;;;;2.35;1.27;;;;;;;;;;10459907;28;20226;-81
2022/10/23 17:38:29;;;;;;;1.50;1.50;;;;;;;;;;10450471;28;20178;-78
2022/10/23 17:43:30;;;;;;;1.38;1.30;;;;;;;;;;10454273;28;20573;-77
2022/10/23 17:48:31;;;;;;;1.75;1.60;;;;;;;;;;10450202;28;20777;-74
2022/10/23 17:53:33;;;;;;;1.55;1.50;;;;;;;;;;10451857;28;20647;-73
2022/10/23 17:58:35;;;;;;;19.60;15.55;;;;;;;;;;10445016;28;20186;-72
2022/10/23 18:03:36;;;;;;;14.27;10.52;;;;;;;;;;10449868;28;20309;-69
2022/10/23 18:08:38;;;;;;;2.78;2.65;;;;;;;;;;10450097;28;20202;-70
2022/10/23 18:13:39;;;;;;;4.03;2.95;;;;;;;;;;10454721;28;20333;-68
2022/10/23 18:18:41;;;;;;;4.47;4.07;;;;;;;;;;10453145;28;20195;-72
2022/10/23 18:23:42;;;;;;;7.65;7.07;;;;;;;;;;10447385;28;20190;-73
2022/10/23 18:28:47;;;;;;;1.70;1.67;;;;;;;;;;10454441;28;20201;-71
2022/10/23 18:33:48;;;;;;;1.95;1.85;;;;;;;;;;10454120;28;20633;-71
2022/10/23 18:38:50;;;;;;;3.10;2.13;;;;;;;;;;10449063;28;21067;-72
2022/10/23 18:43:51;;;;;;;1.63;1.30;;;;;;;;;;10446895;28;20440;-69
2022/10/23 18:48:52;;;;;;;2.40;2.30;;;;;;;;;;10451264;28;20229;-72
2022/10/23 18:53:53;;;;;;;2.70;2.20;;;;;;;;;;10450432;28;20214;-69
2022/10/23 18:58:56;;;;;;;2.25;2.10;;;;;;;;;;10454629;28;20183;-72
2022/10/23 19:03:58;;;;;;;5.22;3.83;;;;;;;;;;10455592;28;20800;-71
2022/10/23 19:08:59;;;;;;;2.10;2.03;;;;;;;;;;10460778;28;20182;-70
2022/10/23 19:14:00;;;;;;;1.17;0.93;;;;;;;;;;10457934;28;20790;-72
2022/10/23 19:19:03;;;;;;;1.20;1.10;;;;;;;;;;10455786;28;20194;-72
2022/10/23 19:24:06;;;;;;;1.10;1.10;;;;;;;;;;10462621;28;20313;-72
2022/10/23 19:29:09;;;;;;;1.95;1.13;;;;;;;;;;10457272;28;20229;-70
2022/10/23 19:34:10;;;;;;;0.90;0.90;;;;;;;;;;10458216;28;20299;-76
2022/10/23 19:39:11;;;;;;;2.83;1.10;;;;;;;;;;10450269;28;20175;-75
2022/10/23 19:44:13;;;;;;;0.93;0.90;;;;;;;;;;10457327;28;20295;-76
2022/10/23 19:49:14;;;;;;;0.80;0.80;;;;;;;;;;10456684;28;20191;-76
2022/10/23 19:54:15;;;;;;;1.10;0.82;;;;;;;;;;10453704;28;20203;-76
2022/10/23 19:59:16;;;;;;;1.70;1.02;;;;;;;;;;10453300;28;20818;-74
2022/10/23 20:04:18;;;;;;;1.33;1.23;;;;;;;;;;10449796;28;20230;-74
2022/10/23 20:09:20;;;;;;;1.67;1.15;;;;;;;;;;10454329;28;20299;-74
2022/10/23 20:14:21;;;;;;;3.20;1.48;;;;;;;;;;10453379;28;20265;-75
2022/10/23 20:19:22;;;;;;;1.13;1.10;;;;;;;;;;10453600;28;20274;-74
2022/10/23 20:24:23;;;;;;;1.52;1.52;;;;;;;;;;10452258;28;20194;-74
2022/10/23 20:29:24;;;;;;;2.47;1.20;;;;;;;;;;10451750;28;20280;-73
2022/10/23 20:34:26;;;;;;;1.80;1.23;;;;;;;;;;10455445;28;20226;-73
2022/10/23 20:39:28;;;;;;;1.52;1.52;;;;;;;;;;10449593;28;20580;-74
2022/10/23 20:44:30;;;;;;;0.90;0.90;;;;;;;;;;10450724;28;20235;-73
2022/10/23 20:49:31;;;;;;;0.85;0.85;;;;;;;;;;10451203;28;20262;-73
2022/10/23 20:54:34;;;;;;;1.10;1.10;;;;;;;;;;10455849;28;20218;-73
2022/10/23 20:59:35;;;;;;;2.00;1.55;;;;;;;;;;10454846;28;21000;-72
2022/10/23 21:04:36;;;;;;;2.95;1.30;;;;;;;;;;10453815;28;20214;-72
2022/10/23 21:09:37;;;;;;;1.42;1.30;;;;;;;;;;10450943;28;20328;-72
2022/10/23 21:14:38;;;;;;;2.58;1.45;;;;;;;;;;10455798;28;20301;-72
2022/10/23 21:19:40;;;;;;;1.80;1.70;;;;;;;;;;10456754;28;20276;-72
2022/10/23 21:24:41;;;;;;;1.45;1.45;;;;;;;;;;10458431;28;20199;-72
2022/10/23 21:29:42;;;;;;;1.60;1.60;;;;;;;;;;10451985;28;20252;-72
2022/10/23 21:34:43;;;;;;;2.15;1.83;;;;;;;;;;10449370;28;20226;-72
2022/10/23 21:39:44;;;;;;;1.48;1.48;;;;;;;;;;10451686;28;20235;-73
2022/10/23 21:44:45;;;;;;;3.10;2.00;;;;;;;;;;10453920;28;20226;-73
2022/10/23 21:49:46;;;;;;;1.50;1.40;;;;;;;;;;10459075;28;20266;-74
2022/10/23 21:54:50;;;;;;;1.95;1.70;;;;;;;;;;10450759;28;20218;-74
2022/10/23 21:59:53;;;;;;;1.60;1.50;;;;;;;;;;10432846;28;20205;-75
2022/10/23 22:04:54;;;;;;;2.78;2.05;;;;;;;;;;10454399;28;20214;-74
2022/10/23 22:09:55;;;;;;;1.70;1.55;;;;;;;;;;10461784;28;20197;-75
2022/10/23 22:14:57;;;;;;;1.27;1.17;;;;;;;;;;10457736;28;20223;-76
2022/10/23 22:19:58;;;;;;;3.20;1.70;;;;;;;;;;10458093;28;20194;-75
2022/10/23 22:25:00;;;;;;;6.72;1.70;;;;;;;;;;10456633;28;20206;-74
2022/10/23 22:30:02;;;;;;;3.90;2.10;;;;;;;;;;10457199;28;20191;-75
2022/10/23 22:35:03;;;;;;;3.08;1.60;;;;;;;;;;10460201;28;20222;-75
2022/10/23 22:40:05;;;;;;;6.38;1.55;;;;;;;;;;10466780;28;20183;-75
2022/10/23 22:45:06;;;;;;;3.15;1.35;;;;;;;;;;10467492;28;20801;-75
2022/10/23 22:50:08;;;;;;;2.22;1.05;;;;;;;;;;10465758;28;20465;-76
2022/10/23 22:55:09;;;;;;;4.80;1.13;;;;;;;;;;10466125;28;20245;-75
2022/10/23 23:00:10;;;;;;;0.80;0.80;;;;;;;;;;10464663;28;20222;-75
2022/10/23 23:05:11;;;;;;;3.45;1.02;;;;;;;;;;10464119;28;20272;-75
2022/10/23 23:10:12;;;;;;;1.40;1.17;;;;;;;;;;10463400;28;20194;-75
2022/10/23 23:15:14;;;;;;;1.25;1.20;;;;;;;;;;10460944;28;20217;-75
2022/10/23 23:20:15;;;;;;;1.15;0.90;;;;;;;;;;10462373;28;20182;-75
2022/10/23 23:25:16;;;;;;;1.63;1.52;;;;;;;;;;10463245;28;20193;-75
2022/10/23 23:30:17;;;;;;;1.30;1.30;;;;;;;;;;10464614;28;20229;-75
2022/10/23 23:35:19;;;;;;;1.17;1.05;;;;;;;;;;10461698;28;20218;-76
2022/10/23 23:40:20;;;;;;;3.00;1.10;;;;;;;;;;10468999;28;20261;-76
2022/10/23 23:45:21;;;;;;;1.65;1.65;;;;;;;;;;10458811;28;20697;-76
2022/10/23 23:50:22;;;;;;;1.30;1.13;;;;;;;;;;10457657;28;20260;-76
2022/10/23 23:55:23;;;;;;;0.93;0.93;;;;;;;;;;10461267;28;20702;-75
